createdAt,value
2023-01-12T00:00:43.328Z,9.30
2023-01-12T00:01:43.309Z,10.80
2023-01-12T00:02:43.425Z,11.70
2023-01-12T00:03:43.241Z,8.60
2023-01-12T00:04:43.306Z,8.50
2023-01-12T00:05:43.208Z,10.70
2023-01-12T00:06:43.213Z,6.50
2023-01-12T00:07:43.254Z,8.20
2023-01-12T00:08:43.205Z,9.30
2023-01-12T00:09:43.225Z,7.70
2023-01-12T00:10:43.196Z,9.90
2023-01-12T00:11:43.185Z,8.80
2023-01-12T00:12:43.139Z,8.10
2023-01-12T00:13:43.150Z,11.10
2023-01-12T00:14:43.245Z,10.80
2023-01-12T00:15:43.138Z,11.90
2023-01-12T00:16:43.145Z,9.40
2023-01-12T00:17:43.073Z,9.40
2023-01-12T00:18:43.092Z,10.10
2023-01-12T00:19:43.105Z,11.10
2023-01-12T00:20:43.068Z,9.60
2023-01-12T00:21:43.054Z,8.90
2023-01-12T00:22:43.024Z,11.00
2023-01-12T00:23:43.041Z,10.50
2023-01-12T00:24:43.304Z,8.40
2023-01-12T00:25:42.984Z,8.70
2023-01-12T00:26:42.999Z,11.30
2023-01-12T00:27:42.961Z,8.70
2023-01-12T00:28:42.979Z,11.30
2023-01-12T00:29:42.974Z,11.10
2023-01-12T00:30:42.955Z,11.50
2023-01-12T00:31:42.963Z,13.10
2023-01-12T00:32:42.912Z,9.20
2023-01-12T00:33:42.915Z,9.60
2023-01-12T00:34:42.963Z,11.40
2023-01-12T00:35:42.897Z,14.30
2023-01-12T00:36:42.861Z,12.50
2023-01-12T00:37:42.856Z,10.20
2023-01-12T00:38:42.877Z,11.10
2023-01-12T00:39:48.996Z,12.30
2023-01-12T00:40:42.864Z,14.50
2023-01-12T00:41:42.807Z,10.80
2023-01-12T00:42:42.864Z,9.50
2023-01-12T00:43:42.789Z,12.20
2023-01-12T00:44:42.798Z,11.90
2023-01-12T00:45:42.797Z,11.20
2023-01-12T00:46:42.767Z,13.30
2023-01-12T00:47:42.747Z,12.40
2023-01-12T00:48:42.760Z,11.80
2023-01-12T00:49:42.722Z,13.30
2023-01-12T00:50:42.762Z,13.00
2023-01-12T00:51:42.717Z,15.20
2023-01-12T00:52:42.753Z,14.80
2023-01-12T00:53:42.711Z,16.90
2023-01-12T00:54:42.686Z,16.90
2023-01-12T00:55:42.677Z,12.60
2023-01-12T00:56:42.656Z,13.20
2023-01-12T00:57:42.625Z,16.10
2023-01-12T00:58:42.676Z,13.80
2023-01-12T00:59:42.612Z,15.20
2023-01-12T01:00:42.621Z,15.80
2023-01-12T01:01:42.715Z,15.30
2023-01-12T01:02:42.701Z,17.00
2023-01-12T01:03:42.570Z,13.50
2023-01-12T01:04:42.543Z,16.10
2023-01-12T01:05:42.588Z,14.50
2023-01-12T01:06:42.553Z,16.20
2023-01-12T01:07:42.534Z,16.70
2023-01-12T01:08:42.520Z,15.00
2023-01-12T01:09:42.489Z,14.10
2023-01-12T01:10:43.335Z,11.40
2023-01-12T01:11:42.476Z,12.50
2023-01-12T01:12:42.468Z,15.80
2023-01-12T01:13:42.444Z,12.10
2023-01-12T01:14:42.452Z,14.50
2023-01-12T01:15:42.852Z,14.80
2023-01-12T01:16:42.445Z,14.40
2023-01-12T01:17:42.424Z,14.30
2023-01-12T01:18:42.383Z,13.60
2023-01-12T01:19:42.453Z,15.50
2023-01-12T01:20:42.386Z,11.70
2023-01-12T01:21:42.385Z,18.70
2023-01-12T01:22:42.399Z,15.00
2023-01-12T01:23:42.332Z,11.90
2023-01-12T01:24:42.330Z,16.10
2023-01-12T01:25:42.369Z,16.90
2023-01-12T01:26:42.305Z,13.90
2023-01-12T01:27:42.353Z,14.10
2023-01-12T01:28:42.309Z,14.00
2023-01-12T01:29:42.274Z,17.20
2023-01-12T01:30:42.264Z,16.00
2023-01-12T01:31:42.290Z,17.30
2023-01-12T01:32:42.221Z,18.10
2023-01-12T01:33:42.235Z,16.60
2023-01-12T01:34:42.217Z,18.50
2023-01-12T01:35:42.204Z,14.80
2023-01-12T01:36:42.197Z,17.40
2023-01-12T01:37:42.205Z,17.20
2023-01-12T01:38:42.161Z,13.40
2023-01-12T01:39:42.158Z,19.20
2023-01-12T01:40:42.128Z,16.20
2023-01-12T01:41:43.598Z,15.40
2023-01-12T01:42:42.164Z,16.10
2023-01-12T01:43:42.110Z,15.50
2023-01-12T01:44:42.085Z,12.30
2023-01-12T01:45:42.076Z,13.00
2023-01-12T01:46:42.113Z,19.20
2023-01-12T01:47:42.118Z,13.00
2023-01-12T01:48:42.058Z,12.10
2023-01-12T01:49:42.078Z,15.70
2023-01-12T01:50:42.018Z,14.20
2023-01-12T01:51:42.048Z,12.40
2023-01-12T01:52:42.056Z,13.70
2023-01-12T01:53:42.003Z,15.20
2023-01-12T01:54:42.005Z,11.00
2023-01-12T01:55:42.004Z,15.80
2023-01-12T01:56:41.984Z,13.70
2023-01-12T01:57:41.946Z,15.20
2023-01-12T01:58:42.005Z,15.20
2023-01-12T01:59:41.967Z,14.40
2023-01-12T02:00:41.954Z,13.00
2023-01-12T02:01:41.974Z,15.10
2023-01-12T02:02:42.027Z,14.50
2023-01-12T02:03:41.934Z,12.50
2023-01-12T02:04:41.896Z,15.10
2023-01-12T02:05:41.917Z,11.60
2023-01-12T02:06:41.837Z,12.10
2023-01-12T02:07:41.876Z,14.00
2023-01-12T02:08:41.892Z,15.20
2023-01-12T02:09:41.825Z,15.90
2023-01-12T02:10:41.809Z,15.90
2023-01-12T02:11:41.782Z,12.10
2023-01-12T02:12:41.801Z,12.20
2023-01-12T02:13:41.783Z,12.50
2023-01-12T02:14:41.789Z,16.30
2023-01-12T02:15:41.776Z,14.80
2023-01-12T02:16:41.790Z,12.20
2023-01-12T02:17:41.717Z,15.80
2023-01-12T02:18:42.261Z,12.60
2023-01-12T02:19:41.690Z,15.50
2023-01-12T02:20:41.719Z,14.80
2023-01-12T02:21:41.683Z,14.10
2023-01-12T02:22:41.674Z,13.60
2023-01-12T02:23:41.670Z,15.90
2023-01-12T02:24:41.691Z,12.20
2023-01-12T02:25:41.623Z,14.40
2023-01-12T02:26:41.670Z,11.60
2023-01-12T02:27:41.642Z,12.00
2023-01-12T02:28:41.617Z,16.50
2023-01-12T02:29:41.642Z,13.50
2023-01-12T02:30:41.602Z,13.10
2023-01-12T02:31:41.719Z,17.00
2023-01-12T02:32:41.568Z,16.50
2023-01-12T02:33:41.566Z,14.10
2023-01-12T02:34:41.537Z,15.00
2023-01-12T02:35:41.569Z,14.60
2023-01-12T02:36:41.520Z,14.50
2023-01-12T02:37:41.488Z,16.20
2023-01-12T02:38:41.513Z,15.00
2023-01-12T02:39:41.518Z,14.70
2023-01-12T02:40:41.498Z,12.50
2023-01-12T02:41:41.475Z,15.00
2023-01-12T02:42:41.454Z,14.80
2023-01-12T02:43:41.458Z,16.90
2023-01-12T02:44:41.425Z,16.80
2023-01-12T02:45:41.455Z,14.00
2023-01-12T02:46:41.452Z,17.20
2023-01-12T02:47:41.383Z,13.20
2023-01-12T02:48:41.358Z,15.10
2023-01-12T02:49:41.351Z,15.10
2023-01-12T02:50:41.356Z,15.30
2023-01-12T02:51:41.379Z,18.30
2023-01-12T02:52:41.331Z,14.40
2023-01-12T02:53:41.308Z,14.50
2023-01-12T02:54:41.310Z,14.70
2023-01-12T02:55:41.340Z,16.40
2023-01-12T02:56:41.316Z,15.30
2023-01-12T02:57:41.249Z,15.80
2023-01-12T02:58:41.253Z,13.50
2023-01-12T02:59:41.273Z,16.40
2023-01-12T03:00:41.328Z,16.50
2023-01-12T03:01:41.335Z,16.10
2023-01-12T03:02:41.278Z,15.20
2023-01-12T03:03:41.186Z,17.20
2023-01-12T03:04:41.188Z,15.30
2023-01-12T03:05:41.168Z,17.50
2023-01-12T03:06:41.225Z,16.00
2023-01-12T03:07:41.155Z,19.10
2023-01-12T03:08:41.167Z,18.60
2023-01-12T03:09:41.124Z,22.10
2023-01-12T03:10:41.116Z,16.40
2023-01-12T03:11:41.136Z,17.10
2023-01-12T03:12:41.112Z,17.90
2023-01-12T03:13:41.102Z,18.90
2023-01-12T03:14:41.105Z,20.20
2023-01-12T03:15:41.059Z,23.10
2023-01-12T03:16:41.089Z,24.10
2023-01-12T03:17:41.033Z,17.60
2023-01-12T03:18:41.022Z,19.40
2023-01-12T03:19:41.037Z,23.80
2023-01-12T03:20:41.023Z,18.70
2023-01-12T03:21:41.056Z,20.70
2023-01-12T03:22:40.990Z,20.40
2023-01-12T03:23:41.001Z,19.40
2023-01-12T03:24:40.969Z,21.80
2023-01-12T03:25:40.942Z,19.60
2023-01-12T03:26:40.968Z,25.00
2023-01-12T03:27:40.929Z,23.80
2023-01-12T03:28:40.962Z,26.30
2023-01-12T03:29:40.903Z,22.70
2023-01-12T03:30:40.896Z,22.20
2023-01-12T03:31:40.959Z,23.60
2023-01-12T03:32:40.899Z,25.30
2023-01-12T03:33:40.897Z,23.80
2023-01-12T03:34:40.855Z,25.90
2023-01-12T03:35:40.835Z,21.50
2023-01-12T03:36:40.858Z,22.50
2023-01-12T03:37:40.813Z,21.30
2023-01-12T03:38:40.822Z,21.10
2023-01-12T03:39:40.823Z,20.50
2023-01-12T03:40:40.795Z,24.30
2023-01-12T03:41:40.763Z,26.00
2023-01-12T03:42:40.781Z,19.90
2023-01-12T03:43:40.767Z,24.70
2023-01-12T03:44:40.775Z,25.80
2023-01-12T03:45:40.730Z,23.50
2023-01-12T03:46:40.795Z,23.50
2023-01-12T03:47:40.738Z,24.90
2023-01-12T03:48:40.699Z,25.90
2023-01-12T03:49:40.697Z,21.20
2023-01-12T03:50:40.658Z,26.00
2023-01-12T03:51:40.664Z,22.60
2023-01-12T03:52:40.663Z,25.30
2023-01-12T03:53:40.639Z,25.20
2023-01-12T03:54:40.617Z,26.90
2023-01-12T03:55:40.617Z,30.00
2023-01-12T03:56:40.604Z,25.70
2023-01-12T03:57:40.655Z,25.40
2023-01-12T03:58:40.572Z,23.60
2023-01-12T03:59:40.565Z,25.20
2023-01-12T04:00:40.597Z,26.70
2023-01-12T04:01:40.644Z,20.40
2023-01-12T04:02:40.543Z,22.20
2023-01-12T04:03:40.600Z,19.20
2023-01-12T04:04:40.501Z,24.30
2023-01-12T04:05:40.520Z,24.50
2023-01-12T04:06:40.470Z,22.80
2023-01-12T04:07:40.500Z,22.10
2023-01-12T04:08:40.518Z,18.60
2023-01-12T04:09:40.453Z,19.40
2023-01-12T04:10:40.437Z,18.30
2023-01-12T04:11:40.430Z,21.60
2023-01-12T04:12:40.404Z,24.90
2023-01-12T04:13:40.417Z,18.20
2023-01-12T04:14:40.423Z,21.20
2023-01-12T04:15:40.408Z,19.40
2023-01-12T04:16:40.442Z,23.70
2023-01-12T04:17:40.367Z,22.20
2023-01-12T04:18:40.348Z,23.10
2023-01-12T04:19:40.350Z,21.80
2023-01-12T04:20:40.367Z,21.20
2023-01-12T04:21:40.345Z,25.00
2023-01-12T04:22:40.296Z,24.20
2023-01-12T04:23:40.306Z,19.30
2023-01-12T04:24:40.271Z,26.50
2023-01-12T04:25:40.378Z,23.90
2023-01-12T04:26:40.273Z,26.50
2023-01-12T04:27:40.260Z,21.00
2023-01-12T04:28:40.223Z,23.00
2023-01-12T04:29:40.231Z,20.20
2023-01-12T04:30:40.245Z,23.10
2023-01-12T04:31:40.244Z,22.10
2023-01-12T04:32:40.221Z,20.40
2023-01-12T04:33:40.188Z,24.10
2023-01-12T04:34:40.205Z,22.30
2023-01-12T04:35:40.173Z,23.80
2023-01-12T04:36:41.919Z,22.10
2023-01-12T04:37:40.134Z,21.60
2023-01-12T04:38:40.156Z,20.40
2023-01-12T04:39:40.108Z,25.80
2023-01-12T04:40:40.110Z,21.00
2023-01-12T04:41:40.094Z,23.60
2023-01-12T04:42:40.123Z,24.80
2023-01-12T04:43:40.095Z,26.10
2023-01-12T04:44:40.043Z,20.80
2023-01-12T04:45:40.144Z,19.50
2023-01-12T04:46:40.060Z,23.40
2023-01-12T04:47:40.020Z,20.20
2023-01-12T04:48:40.096Z,22.90
2023-01-12T04:49:40.008Z,23.80
2023-01-12T04:50:39.996Z,23.40
2023-01-12T04:51:39.990Z,23.70
2023-01-12T04:52:39.987Z,20.00
2023-01-12T04:53:39.981Z,22.40
2023-01-12T04:54:39.960Z,23.70
2023-01-12T04:55:39.952Z,24.40
2023-01-12T04:56:39.916Z,21.10
2023-01-12T04:57:39.907Z,21.20
2023-01-12T04:58:39.934Z,20.30
2023-01-12T04:59:39.901Z,17.80
2023-01-12T05:00:39.866Z,20.20
2023-01-12T05:01:39.951Z,25.20
2023-01-12T05:02:39.863Z,19.60
2023-01-12T05:03:40.295Z,21.10
2023-01-12T05:04:39.845Z,22.10
2023-01-12T05:05:39.822Z,19.00
2023-01-12T05:06:39.809Z,15.60
2023-01-12T05:07:39.804Z,21.00
2023-01-12T05:08:39.799Z,17.30
2023-01-12T05:09:39.788Z,16.80
2023-01-12T05:10:39.807Z,18.60
2023-01-12T05:11:39.769Z,20.30
2023-01-12T05:12:39.744Z,16.40
2023-01-12T05:13:39.721Z,14.20
2023-01-12T05:14:39.712Z,18.00
2023-01-12T05:15:39.753Z,18.90
2023-01-12T05:16:39.714Z,19.40
2023-01-12T05:17:39.697Z,18.50
2023-01-12T05:18:39.680Z,14.10
2023-01-12T05:19:39.669Z,17.10
2023-01-12T05:20:39.753Z,12.00
2023-01-12T05:21:39.626Z,14.20
2023-01-12T05:22:39.650Z,17.40
2023-01-12T05:23:39.635Z,13.30
2023-01-12T05:24:39.643Z,14.30
2023-01-12T05:25:39.576Z,18.30
2023-01-12T05:26:39.617Z,11.90
2023-01-12T05:27:39.627Z,13.10
2023-01-12T05:28:39.568Z,10.70
2023-01-12T05:29:39.568Z,13.90
2023-01-12T05:30:39.572Z,12.60
2023-01-12T05:31:39.527Z,12.40
2023-01-12T05:32:39.553Z,13.00
2023-01-12T05:33:39.536Z,12.50
2023-01-12T05:34:39.493Z,11.90
2023-01-12T05:35:39.467Z,10.40
2023-01-12T05:36:39.491Z,12.70
2023-01-12T05:37:39.447Z,12.50
2023-01-12T05:38:39.493Z,10.60
2023-01-12T05:39:39.451Z,10.20
2023-01-12T05:40:39.426Z,11.10
2023-01-12T05:41:39.403Z,10.50
2023-01-12T05:42:39.408Z,11.60
2023-01-12T05:43:39.389Z,9.20
2023-01-12T05:44:39.404Z,8.90
2023-01-12T05:45:39.387Z,9.30
2023-01-12T05:46:39.360Z,10.20
2023-01-12T05:47:39.342Z,11.50
2023-01-12T05:48:40.159Z,11.60
2023-01-12T05:49:39.318Z,10.40
2023-01-12T05:50:39.335Z,10.10
2023-01-12T05:51:39.323Z,12.50
2023-01-12T05:52:39.285Z,11.60
2023-01-12T05:53:39.264Z,11.90
2023-01-12T05:54:39.276Z,9.10
2023-01-12T05:55:39.282Z,12.90
2023-01-12T05:56:39.270Z,9.10
2023-01-12T05:57:39.245Z,7.80
2023-01-12T05:58:39.236Z,12.60
2023-01-12T05:59:39.195Z,11.10
2023-01-12T06:00:39.204Z,12.10
2023-01-12T06:01:39.188Z,8.90
2023-01-12T06:02:39.197Z,12.70
2023-01-12T06:03:39.191Z,11.50
2023-01-12T06:04:39.232Z,10.40
2023-01-12T06:05:39.170Z,11.40
2023-01-12T06:06:39.134Z,9.90
2023-01-12T06:07:39.115Z,9.00
2023-01-12T06:08:39.144Z,9.40
2023-01-12T06:09:39.091Z,11.40
2023-01-12T06:10:39.089Z,12.80
2023-01-12T06:11:39.104Z,8.70
2023-01-12T06:12:39.044Z,9.60
2023-01-12T06:13:39.061Z,12.10
2023-01-12T06:14:39.040Z,10.30
2023-01-12T06:15:39.035Z,9.10
2023-01-12T06:16:38.998Z,7.50
2023-01-12T06:17:39.001Z,9.00
2023-01-12T06:18:39.027Z,12.40
2023-01-12T06:19:38.982Z,9.10
2023-01-12T06:20:38.962Z,9.80
2023-01-12T06:21:39.001Z,13.20
2023-01-12T06:22:38.968Z,8.90
2023-01-12T06:23:38.944Z,5.80
2023-01-12T06:24:39.710Z,9.10
2023-01-12T06:25:40.700Z,7.80
2023-01-12T06:26:38.884Z,7.80
2023-01-12T06:27:38.877Z,7.40
2023-01-12T06:28:38.906Z,10.30
2023-01-12T06:29:38.881Z,10.10
2023-01-12T06:30:38.907Z,7.30
2023-01-12T06:31:38.859Z,8.60
2023-01-12T06:32:38.867Z,7.40
2023-01-12T06:33:38.812Z,10.20
2023-01-12T06:34:38.801Z,7.50
2023-01-12T06:35:38.784Z,6.20
2023-01-12T06:36:38.806Z,8.20
2023-01-12T06:37:38.771Z,6.40
2023-01-12T06:38:38.763Z,11.20
2023-01-12T06:39:38.769Z,8.80
2023-01-12T06:40:38.766Z,9.60
2023-01-12T06:41:38.775Z,7.90
2023-01-12T06:42:38.784Z,10.90
2023-01-12T06:43:38.702Z,7.80
2023-01-12T06:44:38.687Z,10.00
2023-01-12T06:45:38.692Z,8.30
2023-01-12T06:46:38.725Z,8.80
2023-01-12T06:47:38.663Z,9.90
2023-01-12T06:48:39.638Z,8.80
2023-01-12T06:49:38.635Z,7.20
2023-01-12T06:50:38.629Z,10.10
2023-01-12T06:51:38.626Z,5.50
2023-01-12T06:52:38.603Z,7.40
2023-01-12T06:53:38.596Z,8.10
2023-01-12T06:54:38.623Z,6.70
2023-01-12T06:55:38.611Z,8.90
2023-01-12T06:56:38.550Z,9.20
2023-01-12T06:57:38.552Z,10.00
2023-01-12T06:58:38.548Z,8.80
2023-01-12T06:59:39.089Z,10.90
2023-01-12T07:00:38.560Z,9.60
2023-01-12T07:01:38.599Z,7.70
2023-01-12T07:02:38.489Z,10.50
2023-01-12T07:03:38.484Z,7.00
2023-01-12T07:04:38.487Z,10.30
2023-01-12T07:05:38.456Z,8.70
2023-01-12T07:06:38.657Z,12.40
2023-01-12T07:07:40.156Z,8.80
2023-01-12T07:08:38.413Z,8.00
2023-01-12T07:09:38.421Z,6.60
2023-01-12T07:10:38.467Z,10.20
2023-01-12T07:11:38.403Z,7.50
2023-01-12T07:12:38.412Z,7.50
2023-01-12T07:13:38.366Z,11.10
2023-01-12T07:14:38.346Z,9.70
2023-01-12T07:15:38.425Z,11.00
2023-01-12T07:16:38.350Z,7.90
2023-01-12T07:17:38.330Z,8.50
2023-01-12T07:18:38.341Z,8.60
2023-01-12T07:19:40.229Z,10.00
2023-01-12T07:20:38.317Z,8.50
2023-01-12T07:21:38.295Z,9.10
2023-01-12T07:22:38.273Z,9.40
2023-01-12T07:23:38.361Z,8.40
2023-01-12T07:24:38.340Z,6.70
2023-01-12T07:25:38.257Z,10.50
2023-01-12T07:26:38.367Z,8.80
2023-01-12T07:27:38.223Z,7.20
2023-01-12T07:28:38.178Z,9.20
2023-01-12T07:29:38.213Z,9.10
2023-01-12T07:30:38.166Z,8.50
2023-01-12T07:31:38.173Z,7.50
2023-01-12T07:32:38.139Z,10.00
2023-01-12T07:33:38.128Z,10.30
2023-01-12T07:34:38.185Z,7.40
2023-01-12T07:35:38.308Z,11.90
2023-01-12T07:36:38.098Z,8.20
2023-01-12T07:37:38.092Z,8.20
2023-01-12T07:38:38.071Z,8.40
2023-01-12T07:39:38.084Z,8.20
2023-01-12T07:40:38.071Z,8.60
2023-01-12T07:41:38.105Z,7.20
2023-01-12T07:42:38.030Z,9.40
2023-01-12T07:43:38.086Z,10.20
2023-01-12T07:44:38.045Z,7.40
2023-01-12T07:45:38.032Z,8.00
2023-01-12T07:46:38.194Z,8.00
2023-01-12T07:47:38.115Z,8.80
2023-01-12T07:48:37.964Z,9.70
2023-01-12T07:49:37.993Z,7.00
2023-01-12T07:50:37.935Z,8.70
2023-01-12T07:51:37.923Z,11.70
2023-01-12T07:52:38.006Z,10.10
2023-01-12T07:53:37.933Z,9.10
2023-01-12T07:54:37.910Z,12.30
2023-01-12T07:55:37.875Z,9.50
2023-01-12T07:56:37.923Z,9.00
2023-01-12T07:57:37.866Z,10.80
2023-01-12T07:58:37.887Z,11.90
2023-01-12T07:59:37.902Z,10.50
2023-01-12T08:00:37.846Z,11.00
2023-01-12T08:01:37.983Z,9.40
2023-01-12T08:02:37.832Z,9.50
2023-01-12T08:03:37.799Z,10.30
2023-01-12T08:04:37.828Z,9.00
2023-01-12T08:05:37.878Z,11.20
2023-01-12T08:06:37.868Z,7.50
2023-01-12T08:07:37.759Z,10.70
2023-01-12T08:08:37.750Z,9.50
2023-01-12T08:09:37.751Z,11.00
2023-01-12T08:10:37.754Z,9.00
2023-01-12T08:11:37.692Z,13.50
2023-01-12T08:12:37.731Z,8.40
2023-01-12T08:13:37.716Z,12.00
2023-01-12T08:14:37.694Z,11.60
2023-01-12T08:15:37.661Z,11.30
2023-01-12T08:16:37.657Z,11.00
2023-01-12T08:17:37.647Z,11.20
2023-01-12T08:18:37.634Z,9.80
2023-01-12T08:19:37.633Z,9.60
2023-01-12T08:20:37.625Z,10.80
2023-01-12T08:21:37.607Z,12.50
2023-01-12T08:22:37.620Z,11.60
2023-01-12T08:23:37.573Z,9.90
2023-01-12T08:24:37.548Z,8.90
2023-01-12T08:25:37.601Z,10.70
2023-01-12T08:26:37.527Z,8.70
2023-01-12T08:27:37.539Z,9.30
2023-01-12T08:28:37.532Z,10.00
2023-01-12T08:29:37.510Z,8.50
2023-01-12T08:30:37.547Z,10.30
2023-01-12T08:31:37.471Z,11.70
2023-01-12T08:32:37.464Z,9.30
2023-01-12T08:33:37.453Z,10.40
2023-01-12T08:34:37.472Z,10.90
2023-01-12T08:35:37.454Z,10.50
2023-01-12T08:36:37.423Z,9.50
2023-01-12T08:37:37.440Z,8.90
2023-01-12T08:38:37.392Z,10.30
2023-01-12T08:39:37.390Z,9.30
2023-01-12T08:40:37.394Z,8.90
2023-01-12T08:41:37.383Z,10.00
2023-01-12T08:42:37.366Z,8.70
2023-01-12T08:43:37.406Z,6.90
2023-01-12T08:44:37.336Z,8.40
2023-01-12T08:45:37.353Z,8.20
2023-01-12T08:46:37.371Z,8.40
2023-01-12T08:47:37.281Z,9.70
2023-01-12T08:48:37.283Z,9.30
2023-01-12T08:49:37.269Z,7.80
2023-01-12T08:50:37.282Z,9.60
2023-01-12T08:51:37.259Z,7.40
2023-01-12T08:52:37.271Z,8.20
2023-01-12T08:53:37.221Z,8.60
2023-01-12T08:54:37.209Z,9.60
2023-01-12T08:55:37.227Z,10.50
2023-01-12T08:56:37.206Z,6.60
2023-01-12T08:57:37.190Z,8.20
2023-01-12T08:58:37.168Z,7.00
2023-01-12T08:59:37.170Z,8.20
2023-01-12T09:00:37.184Z,7.20
2023-01-12T09:01:37.291Z,7.60
2023-01-12T09:02:37.220Z,7.00
2023-01-12T09:03:37.112Z,7.70
2023-01-12T09:04:37.122Z,7.40
2023-01-12T09:05:37.150Z,8.80
2023-01-12T09:06:37.073Z,6.40
2023-01-12T09:07:37.065Z,7.30
2023-01-12T09:08:37.075Z,6.70
2023-01-12T09:09:37.059Z,10.10
2023-01-12T09:10:37.069Z,7.90
2023-01-12T09:11:37.027Z,4.80
2023-01-12T09:12:36.996Z,4.10
2023-01-12T09:13:37.005Z,5.60
2023-01-12T09:14:37.017Z,5.30
2023-01-12T09:15:37.036Z,4.60
2023-01-12T09:16:36.995Z,6.40
2023-01-12T09:17:36.969Z,5.90
2023-01-12T09:18:36.945Z,7.50
2023-01-12T09:19:36.968Z,4.90
2023-01-12T09:20:36.966Z,4.00
2023-01-12T09:21:36.936Z,5.60
2023-01-12T09:22:36.892Z,3.70
2023-01-12T09:23:36.895Z,4.10
2023-01-12T09:24:36.880Z,4.20
2023-01-12T09:25:36.926Z,5.20
2023-01-12T09:26:36.893Z,5.00
2023-01-12T09:27:36.860Z,5.40
2023-01-12T09:28:36.818Z,6.90
2023-01-12T09:29:36.836Z,4.00
2023-01-12T09:30:36.843Z,3.70
2023-01-12T09:31:36.889Z,6.50
2023-01-12T09:32:37.260Z,5.70
2023-01-12T09:33:36.788Z,3.80
2023-01-12T09:34:36.761Z,4.10
2023-01-12T09:35:36.784Z,4.50
2023-01-12T09:36:36.769Z,4.80
2023-01-12T09:37:36.727Z,4.70
2023-01-12T09:38:36.745Z,4.50
2023-01-12T09:39:37.658Z,3.60
2023-01-12T09:40:36.707Z,3.20
2023-01-12T09:41:36.679Z,3.90
2023-01-12T09:42:36.698Z,3.90
2023-01-12T09:43:36.661Z,2.90
2023-01-12T09:44:36.643Z,4.20
2023-01-12T09:45:36.711Z,5.20
2023-01-12T09:46:36.618Z,6.30
2023-01-12T09:47:36.614Z,5.40
2023-01-12T09:48:36.598Z,4.40
2023-01-12T09:49:36.584Z,4.20
2023-01-12T09:50:36.607Z,4.00
2023-01-12T09:51:36.569Z,4.40
2023-01-12T09:52:36.557Z,4.40
2023-01-12T09:53:36.561Z,7.20
2023-01-12T09:54:36.533Z,4.60
2023-01-12T09:55:36.534Z,4.60
2023-01-12T09:56:36.523Z,4.60
2023-01-12T09:57:36.490Z,4.60
2023-01-12T09:58:36.480Z,4.10
2023-01-12T09:59:36.474Z,3.20
2023-01-12T10:00:36.487Z,4.80
2023-01-12T10:01:36.498Z,3.70
2023-01-12T10:02:36.573Z,3.90
2023-01-12T10:03:36.441Z,3.60
2023-01-12T10:04:36.420Z,4.40
2023-01-12T10:05:40.201Z,4.00
2023-01-12T10:06:36.404Z,2.80
2023-01-12T10:07:36.374Z,3.30
2023-01-12T10:08:36.386Z,4.10
2023-01-12T10:09:36.352Z,3.00
2023-01-12T10:10:36.367Z,4.70
2023-01-12T10:11:36.354Z,6.10
2023-01-12T10:12:36.331Z,3.50
2023-01-12T10:13:36.320Z,4.00
2023-01-12T10:14:36.315Z,5.00
2023-01-12T10:15:36.304Z,4.30
2023-01-12T10:16:36.330Z,5.00
2023-01-12T10:17:50.311Z,4.20
2023-01-12T10:18:36.265Z,4.00
2023-01-12T10:19:36.238Z,5.00
2023-01-12T10:20:36.267Z,3.30
2023-01-12T10:21:36.215Z,4.10
2023-01-12T10:22:36.226Z,3.90
2023-01-12T10:23:36.199Z,3.50
2023-01-12T10:24:36.193Z,4.50
2023-01-12T10:25:36.196Z,3.90
2023-01-12T10:26:36.172Z,2.30
2023-01-12T10:27:36.157Z,3.80
2023-01-12T10:28:36.152Z,3.40
2023-01-12T10:29:36.139Z,4.20
2023-01-12T10:30:36.152Z,3.80
2023-01-12T10:31:36.130Z,4.50
2023-01-12T10:32:41.865Z,4.50
2023-01-12T10:33:36.100Z,3.80
2023-01-12T10:34:36.077Z,4.80
2023-01-12T10:35:36.088Z,5.10
2023-01-12T10:36:36.070Z,2.80
2023-01-12T10:37:36.034Z,3.80
2023-01-12T10:38:36.070Z,2.70
2023-01-12T10:39:36.015Z,3.70
2023-01-12T10:40:36.071Z,4.70
2023-01-12T10:41:36.007Z,3.80
2023-01-12T10:42:36.007Z,4.00
2023-01-12T10:43:35.973Z,4.40
2023-01-12T10:44:35.976Z,2.90
2023-01-12T10:45:36.053Z,3.90
2023-01-12T10:46:35.950Z,4.00
2023-01-12T10:47:35.969Z,4.90
2023-01-12T10:48:35.925Z,4.10
2023-01-12T10:49:35.902Z,4.00
2023-01-12T10:50:35.919Z,2.90
2023-01-12T10:51:35.920Z,3.40
2023-01-12T10:52:35.877Z,3.10
2023-01-12T10:53:35.858Z,3.50
2023-01-12T10:54:35.844Z,4.20
2023-01-12T10:55:35.868Z,2.80
2023-01-12T10:56:35.840Z,4.40
2023-01-12T10:57:35.828Z,5.00
2023-01-12T10:58:35.801Z,3.30
2023-01-12T10:59:35.790Z,4.30
2023-01-12T11:00:35.883Z,3.70
2023-01-12T11:01:35.991Z,3.40
2023-01-12T11:02:35.810Z,3.70
2023-01-12T11:03:35.777Z,3.00
2023-01-12T11:04:35.736Z,3.70
2023-01-12T11:05:35.743Z,2.50
2023-01-12T11:06:35.716Z,3.10
2023-01-12T11:07:35.728Z,3.30
2023-01-12T11:08:35.692Z,3.30
2023-01-12T11:09:35.682Z,3.70
2023-01-12T11:10:35.668Z,4.40
2023-01-12T11:11:35.651Z,3.30
2023-01-12T11:12:35.679Z,4.10
2023-01-12T11:13:35.649Z,5.20
2023-01-12T11:14:35.630Z,2.90
2023-01-12T11:15:35.734Z,3.50
2023-01-12T11:16:35.690Z,4.30
2023-01-12T11:17:35.769Z,3.10
2023-01-12T11:18:35.585Z,4.50
2023-01-12T11:19:35.570Z,3.90
2023-01-12T11:20:35.555Z,5.70
2023-01-12T11:21:35.566Z,4.70
2023-01-12T11:22:35.531Z,4.30
2023-01-12T11:23:35.541Z,2.50
2023-01-12T11:24:35.519Z,3.80
2023-01-12T11:25:35.512Z,3.90
2023-01-12T11:26:35.488Z,2.90
2023-01-12T11:27:35.511Z,3.70
2023-01-12T11:28:35.493Z,2.20
2023-01-12T11:29:35.446Z,3.20
2023-01-12T11:30:35.498Z,3.20
2023-01-12T11:31:35.436Z,2.90
2023-01-12T11:32:35.426Z,4.60
2023-01-12T11:33:35.443Z,2.50
2023-01-12T11:34:35.427Z,3.20
2023-01-12T11:35:35.409Z,4.30
2023-01-12T11:36:35.430Z,2.20
2023-01-12T11:37:35.363Z,2.70
2023-01-12T11:38:35.379Z,3.40
2023-01-12T11:39:35.351Z,5.60
2023-01-12T11:40:35.351Z,3.00
2023-01-12T11:41:35.383Z,4.30
2023-01-12T11:42:35.313Z,3.50
2023-01-12T11:43:35.325Z,4.40
2023-01-12T11:44:35.288Z,3.30
2023-01-12T11:45:35.272Z,3.50
2023-01-12T11:46:35.267Z,2.60
2023-01-12T11:47:35.255Z,4.40
2023-01-12T11:48:35.253Z,2.70
2023-01-12T11:49:35.259Z,2.50
2023-01-12T11:50:35.223Z,3.20
2023-01-12T11:51:35.204Z,2.60
2023-01-12T11:52:35.198Z,4.50
2023-01-12T11:53:35.183Z,2.80
2023-01-12T11:54:35.202Z,4.00
2023-01-12T11:55:35.180Z,5.00
2023-01-12T11:56:35.147Z,4.00
2023-01-12T11:57:35.157Z,4.20
2023-01-12T11:58:35.122Z,2.40
2023-01-12T11:59:35.118Z,3.20
2023-01-12T12:00:35.119Z,3.20
2023-01-12T12:01:35.093Z,2.90
2023-01-12T12:02:35.170Z,2.90
2023-01-12T12:03:35.115Z,2.40
2023-01-12T12:04:35.063Z,2.40
2023-01-12T12:05:35.079Z,2.30
2023-01-12T12:06:35.037Z,3.30
2023-01-12T12:07:35.025Z,1.80
2023-01-12T12:08:35.022Z,3.00
2023-01-12T12:09:35.215Z,3.10
2023-01-12T12:10:35.015Z,4.80
2023-01-12T12:11:35.061Z,3.20
2023-01-12T12:12:34.967Z,4.50
2023-01-12T12:13:34.968Z,2.10
2023-01-12T12:14:34.942Z,3.10
2023-01-12T12:15:34.992Z,2.10
2023-01-12T12:16:34.925Z,3.30
2023-01-12T12:17:34.926Z,3.20
2023-01-12T12:18:34.906Z,3.00
2023-01-12T12:19:34.915Z,3.60
2023-01-12T12:20:34.913Z,2.20
2023-01-12T12:21:34.870Z,2.50
2023-01-12T12:22:34.859Z,2.60
2023-01-12T12:23:34.860Z,2.60
2023-01-12T12:24:34.839Z,3.40
2023-01-12T12:25:34.846Z,2.50
2023-01-12T12:26:34.815Z,1.60
2023-01-12T12:27:34.806Z,2.90
2023-01-12T12:28:34.795Z,2.90
2023-01-12T12:29:34.787Z,3.80
2023-01-12T12:30:34.781Z,4.70
2023-01-12T12:31:34.756Z,4.70
2023-01-12T12:32:34.749Z,2.80
2023-01-12T12:33:34.739Z,3.50
2023-01-12T12:34:34.720Z,3.80
2023-01-12T12:35:34.732Z,2.70
2023-01-12T12:36:34.694Z,3.10
2023-01-12T12:37:34.697Z,2.80
2023-01-12T12:38:34.669Z,3.80
2023-01-12T12:39:34.664Z,2.70
2023-01-12T12:40:34.679Z,3.30
2023-01-12T12:41:34.658Z,2.70
2023-01-12T12:42:34.623Z,3.50
2023-01-12T12:43:34.623Z,2.60
2023-01-12T12:44:34.601Z,3.90
2023-01-12T12:45:34.616Z,3.00
2023-01-12T12:46:34.633Z,2.80
2023-01-12T12:47:34.580Z,4.10
2023-01-12T12:48:34.549Z,2.60
2023-01-12T12:49:34.554Z,3.70
2023-01-12T12:50:34.562Z,1.90
2023-01-12T12:51:34.537Z,1.70
2023-01-12T12:52:34.519Z,2.30
2023-01-12T12:53:34.510Z,3.10
2023-01-12T12:54:34.493Z,3.40
2023-01-12T12:55:34.545Z,2.10
2023-01-12T12:56:34.469Z,3.90
2023-01-12T12:57:34.456Z,2.10
2023-01-12T12:58:34.449Z,1.60
2023-01-12T12:59:34.429Z,1.60
2023-01-12T13:00:34.487Z,4.20
2023-01-12T13:01:34.537Z,3.20
2023-01-12T13:02:34.438Z,4.20
2023-01-12T13:03:34.396Z,3.20
2023-01-12T13:04:34.382Z,2.20
2023-01-12T13:05:34.394Z,3.10